createdAt,value
2018-03-26T00:00:24.856Z,1005.64
2018-03-26T00:00:50.989Z,1005.63
2018-03-26T00:01:17.131Z,1005.66
2018-03-26T00:01:43.268Z,1005.67
2018-03-26T00:02:09.407Z,1005.62
2018-03-26T00:02:35.544Z,1005.68
2018-03-26T00:03:01.685Z,1005.66
2018-03-26T00:03:27.842Z,1005.67
2018-03-26T00:03:53.985Z,1005.66
2018-03-26T00:04:20.144Z,1005.66
2018-03-26T00:04:46.280Z,1005.63
2018-03-26T00:05:12.422Z,1005.65
2018-03-26T00:05:38.553Z,1005.63
2018-03-26T00:06:04.694Z,1005.67
2018-03-26T00:06:30.836Z,1005.67
2018-03-26T00:06:56.972Z,1005.63
2018-03-26T00:07:23.109Z,1005.63
2018-03-26T00:07:49.262Z,1005.68
2018-03-26T00:08:15.408Z,1005.63
2018-03-26T00:08:41.543Z,1005.64
2018-03-26T00:09:07.681Z,1005.65
2018-03-26T00:09:33.816Z,1005.66
2018-03-26T00:09:59.958Z,1005.66
2018-03-26T00:10:26.096Z,1005.66
2018-03-26T00:10:52.260Z,1005.71
2018-03-26T00:11:18.423Z,1005.67
2018-03-26T00:11:44.558Z,1005.68
2018-03-26T00:12:10.693Z,1005.7
2018-03-26T00:12:36.825Z,1005.69
2018-03-26T00:13:02.959Z,1005.72
2018-03-26T00:13:29.104Z,1005.74
2018-03-26T00:13:55.284Z,1005.69
2018-03-26T00:14:21.423Z,1005.67
2018-03-26T00:14:47.548Z,1005.72
2018-03-26T00:15:13.711Z,1005.71
2018-03-26T00:15:39.851Z,1005.76
2018-03-26T00:16:05.987Z,1005.71
2018-03-26T00:16:32.127Z,1005.72
2018-03-26T00:16:58.282Z,1005.73
2018-03-26T00:17:24.426Z,1005.71
2018-03-26T00:17:50.587Z,1005.68
2018-03-26T00:18:16.748Z,1005.72
2018-03-26T00:18:42.891Z,1005.74
2018-03-26T00:19:09.052Z,1005.75
2018-03-26T00:19:35.188Z,1005.74
2018-03-26T00:20:01.350Z,1005.74
2018-03-26T00:20:27.514Z,1005.71
2018-03-26T00:20:53.658Z,1005.74
2018-03-26T00:21:19.799Z,1005.72
2018-03-26T00:21:46.010Z,1005.75
2018-03-26T00:22:12.098Z,1005.75
2018-03-26T00:22:38.251Z,1005.74
2018-03-26T00:23:04.392Z,1005.74
2018-03-26T00:23:30.524Z,1005.73
2018-03-26T00:23:56.660Z,1005.74
2018-03-26T00:24:22.793Z,1005.74
2018-03-26T00:24:48.927Z,1005.76
2018-03-26T00:25:15.061Z,1005.74
2018-03-26T00:25:41.204Z,1005.73
2018-03-26T00:26:07.339Z,1005.74
2018-03-26T00:26:33.508Z,1005.75
2018-03-26T00:26:59.644Z,1005.75
2018-03-26T00:27:25.776Z,1005.71
2018-03-26T00:27:51.920Z,1005.75
2018-03-26T00:28:18.058Z,1005.75
2018-03-26T00:28:44.197Z,1005.78
2018-03-26T00:29:10.350Z,1005.77
2018-03-26T00:29:36.489Z,1005.76
2018-03-26T00:30:02.626Z,1005.77
2018-03-26T00:30:28.758Z,1005.79
2018-03-26T00:30:54.896Z,1005.77
2018-03-26T00:31:21.036Z,1005.79
2018-03-26T00:31:47.176Z,1005.77
2018-03-26T00:32:13.363Z,1005.77
2018-03-26T00:32:39.499Z,1005.77
2018-03-26T00:33:05.645Z,1005.78
2018-03-26T00:33:31.780Z,1005.76
2018-03-26T00:33:57.916Z,1005.76
2018-03-26T00:34:24.077Z,1005.76
2018-03-26T00:34:50.261Z,1005.75
2018-03-26T00:35:16.353Z,1005.78
2018-03-26T00:35:42.503Z,1005.78
2018-03-26T00:36:08.650Z,1005.78
2018-03-26T00:36:34.784Z,1005.74
2018-03-26T00:37:00.945Z,1005.78
2018-03-26T00:37:27.104Z,1005.76
2018-03-26T00:37:53.240Z,1005.76
2018-03-26T00:38:19.382Z,1005.72
2018-03-26T00:38:45.515Z,1005.77
2018-03-26T00:39:11.655Z,1005.75
2018-03-26T00:39:37.795Z,1005.73
2018-03-26T00:40:03.920Z,1005.75
2018-03-26T00:40:30.731Z,1005.75
2018-03-26T00:40:56.860Z,1005.74
2018-03-26T00:41:23.000Z,1005.73
2018-03-26T00:41:49.144Z,1005.74
2018-03-26T00:42:15.278Z,1005.74
2018-03-26T00:42:41.422Z,1005.76
2018-03-26T00:43:07.559Z,1005.71
2018-03-26T00:43:33.692Z,1005.74
2018-03-26T00:43:59.826Z,1005.73
2018-03-26T00:44:25.963Z,1005.73
2018-03-26T00:44:52.103Z,1005.74
2018-03-26T00:45:18.260Z,1005.7
2018-03-26T00:45:44.416Z,1005.74
2018-03-26T00:46:10.550Z,1005.78
2018-03-26T00:46:36.686Z,1005.8
2018-03-26T00:47:02.822Z,1005.76
2018-03-26T00:47:28.964Z,1005.77
2018-03-26T00:47:55.101Z,1005.79
2018-03-26T00:48:21.237Z,1005.79
2018-03-26T00:48:47.374Z,1005.78
2018-03-26T00:49:13.531Z,1005.81
2018-03-26T00:49:39.665Z,1005.75
2018-03-26T00:50:05.804Z,1005.79
2018-03-26T00:50:31.940Z,1005.81
2018-03-26T00:50:58.076Z,1005.76
2018-03-26T00:51:24.208Z,1005.81
2018-03-26T00:51:50.352Z,1005.82
2018-03-26T00:52:16.482Z,1005.81
2018-03-26T00:52:42.631Z,1005.82
2018-03-26T00:53:08.797Z,1005.78
2018-03-26T00:53:34.935Z,1005.76
2018-03-26T00:54:01.126Z,1005.81
2018-03-26T00:54:27.200Z,1005.83
2018-03-26T00:54:53.334Z,1005.85
2018-03-26T00:55:19.473Z,1005.86
2018-03-26T00:55:45.651Z,1005.83
2018-03-26T00:56:11.752Z,1005.87
2018-03-26T00:56:37.899Z,1005.84
2018-03-26T00:57:04.055Z,1005.86
2018-03-26T00:57:30.182Z,1005.85
2018-03-26T00:57:56.319Z,1005.89
2018-03-26T00:58:22.462Z,1005.88
2018-03-26T00:58:48.594Z,1005.86
2018-03-26T00:59:14.732Z,1005.9
2018-03-26T00:59:40.867Z,1005.85
2018-03-26T01:00:07.006Z,1005.84
2018-03-26T01:00:33.147Z,1005.87
2018-03-26T01:00:59.285Z,1005.9
2018-03-26T01:01:25.421Z,1005.87
2018-03-26T01:01:51.565Z,1005.93
2018-03-26T01:02:17.784Z,1005.9
2018-03-26T01:02:43.860Z,1005.92
2018-03-26T01:03:10.004Z,1005.88
2018-03-26T01:03:36.167Z,1005.91
2018-03-26T01:04:02.318Z,1005.93
2018-03-26T01:04:28.450Z,1005.89
2018-03-26T01:04:54.589Z,1005.94
2018-03-26T01:05:20.755Z,1005.9
2018-03-26T01:05:46.895Z,1005.89
2018-03-26T01:06:13.029Z,1005.94
2018-03-26T01:06:39.170Z,1005.89
2018-03-26T01:07:05.312Z,1005.91
2018-03-26T01:07:31.446Z,1005.91
2018-03-26T01:07:57.592Z,1005.91
2018-03-26T01:08:23.718Z,1005.89
2018-03-26T01:08:49.859Z,1005.92
2018-03-26T01:09:16.015Z,1005.92
2018-03-26T01:09:42.155Z,1005.89
2018-03-26T01:10:08.294Z,1005.89
2018-03-26T01:10:34.432Z,1005.88
2018-03-26T01:11:00.568Z,1005.89
2018-03-26T01:11:26.707Z,1005.92
2018-03-26T01:11:52.871Z,1005.9
2018-03-26T01:12:19.009Z,1005.89
2018-03-26T01:12:45.147Z,1005.88
2018-03-26T01:13:11.286Z,1005.9
2018-03-26T01:13:37.432Z,1005.89
2018-03-26T01:14:03.567Z,1005.9
2018-03-26T01:14:29.701Z,1005.92
2018-03-26T01:14:55.836Z,1005.9
2018-03-26T01:15:21.972Z,1005.95
2018-03-26T01:15:48.110Z,1005.94
2018-03-26T01:16:14.245Z,1005.94
2018-03-26T01:16:40.383Z,1005.93
2018-03-26T01:17:06.546Z,1005.95
2018-03-26T01:17:32.681Z,1005.95
2018-03-26T01:17:58.827Z,1005.88
2018-03-26T01:18:24.965Z,1005.97
2018-03-26T01:18:51.103Z,1005.96
2018-03-26T01:19:17.229Z,1005.95
2018-03-26T01:19:43.364Z,1005.93
2018-03-26T01:20:09.501Z,1005.92
2018-03-26T01:20:35.651Z,1005.94
2018-03-26T01:21:01.800Z,1005.95
2018-03-26T01:21:27.967Z,1005.96
2018-03-26T01:21:54.096Z,1005.95
2018-03-26T01:22:20.238Z,1005.94
2018-03-26T01:22:46.378Z,1005.97
2018-03-26T01:23:12.512Z,1005.98
2018-03-26T01:23:38.653Z,1005.99
2018-03-26T01:24:04.790Z,1006.01
2018-03-26T01:24:30.930Z,1005.96
2018-03-26T01:24:57.081Z,1006
2018-03-26T01:25:23.216Z,1006.01
2018-03-26T01:25:49.357Z,1005.99
2018-03-26T01:26:15.515Z,1006.03
2018-03-26T01:26:41.655Z,1006.03
2018-03-26T01:27:07.789Z,1006
2018-03-26T01:27:33.934Z,1006.03
2018-03-26T01:28:00.066Z,1006.04
2018-03-26T01:28:26.207Z,1006.07
2018-03-26T01:28:52.341Z,1006.05
2018-03-26T01:29:18.470Z,1006.04
2018-03-26T01:29:44.612Z,1006
2018-03-26T01:30:10.751Z,1006.05
2018-03-26T01:30:36.893Z,1006.04
2018-03-26T01:31:03.048Z,1006.02
2018-03-26T01:31:29.190Z,1006.07
2018-03-26T01:31:55.328Z,1006.02
2018-03-26T01:32:21.459Z,1006.05
2018-03-26T01:32:47.598Z,1006.03
2018-03-26T01:33:13.734Z,1006.05
2018-03-26T01:33:39.897Z,1006.04
2018-03-26T01:34:06.060Z,1006.04
2018-03-26T01:34:32.189Z,1006.06
2018-03-26T01:34:58.325Z,1006.05
2018-03-26T01:35:24.483Z,1006.07
2018-03-26T01:35:50.618Z,1006.08
2018-03-26T01:36:16.759Z,1006.02
2018-03-26T01:36:42.891Z,1006.07
2018-03-26T01:37:09.084Z,1006.09
2018-03-26T01:37:35.221Z,1006.13
2018-03-26T01:38:01.358Z,1006.13
2018-03-26T01:38:27.500Z,1006.11
2018-03-26T01:38:53.636Z,1006.12
2018-03-26T01:39:19.774Z,1006.14
2018-03-26T01:39:45.909Z,1006.14
2018-03-26T01:40:12.044Z,1006.14
2018-03-26T01:40:38.178Z,1006.12
2018-03-26T01:41:04.320Z,1006.12
2018-03-26T01:41:30.487Z,1006.17
2018-03-26T01:41:56.625Z,1006.14
2018-03-26T01:42:22.756Z,1006.15
2018-03-26T01:42:48.886Z,1006.16
2018-03-26T01:43:15.026Z,1006.18
2018-03-26T01:43:41.171Z,1006.17
2018-03-26T01:44:07.306Z,1006.16
2018-03-26T01:44:33.440Z,1006.17
2018-03-26T01:44:59.588Z,1006.17
2018-03-26T01:45:25.722Z,1006.15
2018-03-26T01:45:51.859Z,1006.18
2018-03-26T01:46:17.992Z,1006.19
2018-03-26T01:46:44.134Z,1006.17
2018-03-26T01:47:10.295Z,1006.18
2018-03-26T01:47:36.436Z,1006.2
2018-03-26T01:48:02.571Z,1006.21
2018-03-26T01:48:28.716Z,1006.23
2018-03-26T01:48:54.842Z,1006.21
2018-03-26T01:49:20.980Z,1006.25
2018-03-26T01:49:47.143Z,1006.21
2018-03-26T01:50:13.279Z,1006.23
2018-03-26T01:50:39.410Z,1006.22
2018-03-26T01:51:05.578Z,1006.24
2018-03-26T01:51:31.739Z,1006.24
2018-03-26T01:51:57.877Z,1006.23
2018-03-26T01:52:24.020Z,1006.27
2018-03-26T01:52:50.157Z,1006.22
2018-03-26T01:53:16.299Z,1006.24
2018-03-26T01:53:42.434Z,1006.22
2018-03-26T01:54:08.573Z,1006.24
2018-03-26T01:54:34.704Z,1006.26
2018-03-26T01:55:00.845Z,1006.27
2018-03-26T01:55:26.984Z,1006.27
2018-03-26T01:55:53.123Z,1006.25
2018-03-26T01:56:19.263Z,1006.28
2018-03-26T01:56:45.396Z,1006.24
2018-03-26T01:57:11.558Z,1006.25
2018-03-26T01:57:37.717Z,1006.29
2018-03-26T01:58:03.876Z,1006.26
2018-03-26T01:58:30.010Z,1006.27
2018-03-26T01:58:56.158Z,1006.28
2018-03-26T01:59:22.336Z,1006.31
2018-03-26T01:59:48.472Z,1006.34
2018-03-26T02:00:14.608Z,1006.36
2018-03-26T02:00:40.742Z,1006.36
2018-03-26T02:01:06.885Z,1006.34
2018-03-26T02:01:33.019Z,1006.36
2018-03-26T02:01:59.159Z,1006.43
2018-03-26T02:02:25.296Z,1006.4
2018-03-26T02:02:51.432Z,1006.4
2018-03-26T02:03:17.569Z,1006.39
2018-03-26T02:03:43.738Z,1006.4
2018-03-26T02:04:09.877Z,1006.41
2018-03-26T02:04:36.042Z,1006.39
2018-03-26T02:05:02.173Z,1006.4
2018-03-26T02:05:28.328Z,1006.43
2018-03-26T02:05:54.467Z,1006.39
2018-03-26T02:06:20.599Z,1006.4
2018-03-26T02:06:46.736Z,1006.44
2018-03-26T02:07:12.874Z,1006.45
2018-03-26T02:07:39.015Z,1006.45
2018-03-26T02:08:05.156Z,1006.47
2018-03-26T02:08:31.290Z,1006.51
2018-03-26T02:08:57.443Z,1006.51
2018-03-26T02:09:23.582Z,1006.5
2018-03-26T02:09:49.719Z,1006.49
2018-03-26T02:10:15.854Z,1006.51
2018-03-26T02:10:41.989Z,1006.51
2018-03-26T02:11:08.145Z,1006.54
2018-03-26T02:11:34.278Z,1006.5
2018-03-26T02:12:00.420Z,1006.53
2018-03-26T02:12:26.558Z,1006.49
2018-03-26T02:12:52.695Z,1006.47
2018-03-26T02:13:18.831Z,1006.48
2018-03-26T02:13:44.967Z,1006.46
2018-03-26T02:14:11.106Z,1006.45
2018-03-26T02:14:37.243Z,1006.48
2018-03-26T02:15:03.383Z,1006.48
2018-03-26T02:15:29.515Z,1006.49
2018-03-26T02:15:55.650Z,1006.46
2018-03-26T02:16:21.787Z,1006.48
2018-03-26T02:16:47.928Z,1006.51
2018-03-26T02:17:14.063Z,1006.46
2018-03-26T02:17:40.245Z,1006.48
2018-03-26T02:18:06.386Z,1006.48
2018-03-26T02:18:32.520Z,1006.5
2018-03-26T02:18:58.680Z,1006.5
2018-03-26T02:19:24.796Z,1006.47
2018-03-26T02:19:50.921Z,1006.48
2018-03-26T02:20:17.053Z,1006.44
2018-03-26T02:20:43.191Z,1006.49
2018-03-26T02:21:09.332Z,1006.48
2018-03-26T02:21:35.470Z,1006.44
2018-03-26T02:22:01.612Z,1006.49
2018-03-26T02:22:27.748Z,1006.51
2018-03-26T02:22:53.883Z,1006.47
2018-03-26T02:23:20.018Z,1006.48
2018-03-26T02:23:46.158Z,1006.47
2018-03-26T02:24:12.307Z,1006.5
2018-03-26T02:24:38.466Z,1006.47
2018-03-26T02:25:04.602Z,1006.48
2018-03-26T02:25:30.729Z,1006.48
2018-03-26T02:25:56.866Z,1006.51
2018-03-26T02:26:23.021Z,1006.51
2018-03-26T02:26:49.163Z,1006.5
2018-03-26T02:27:15.358Z,1006.47
2018-03-26T02:27:41.468Z,1006.52
2018-03-26T02:28:07.603Z,1006.5
2018-03-26T02:28:33.744Z,1006.53
2018-03-26T02:28:59.884Z,1006.53
2018-03-26T02:29:26.014Z,1006.52
2018-03-26T02:29:52.174Z,1006.52
2018-03-26T02:30:18.357Z,1006.54
2018-03-26T02:30:44.499Z,1006.58
2018-03-26T02:31:10.640Z,1006.56
2018-03-26T02:31:36.801Z,1006.57
2018-03-26T02:32:02.933Z,1006.61
2018-03-26T02:32:29.073Z,1006.57
2018-03-26T02:32:55.208Z,1006.6
2018-03-26T02:33:21.367Z,1006.54
2018-03-26T02:33:47.496Z,1006.6
2018-03-26T02:34:13.644Z,1006.63
2018-03-26T02:34:39.779Z,1006.63
2018-03-26T02:35:05.916Z,1006.6
2018-03-26T02:35:32.053Z,1006.61
2018-03-26T02:35:58.191Z,1006.61
2018-03-26T02:36:24.325Z,1006.62
2018-03-26T02:36:50.462Z,1006.6
2018-03-26T02:37:16.604Z,1006.56
2018-03-26T02:37:42.755Z,1006.61
2018-03-26T02:38:08.916Z,1006.59
2018-03-26T02:38:35.042Z,1006.61
2018-03-26T02:39:01.182Z,1006.61
2018-03-26T02:39:27.352Z,1006.63
2018-03-26T02:39:53.498Z,1006.61
2018-03-26T02:40:19.687Z,1006.58
2018-03-26T02:40:45.851Z,1006.6
2018-03-26T02:41:11.998Z,1006.61
2018-03-26T02:41:38.142Z,1006.61
2018-03-26T02:42:04.272Z,1006.6
2018-03-26T02:42:30.410Z,1006.6
2018-03-26T02:42:56.550Z,1006.58
2018-03-26T02:43:22.700Z,1006.61
2018-03-26T02:43:48.842Z,1006.62
2018-03-26T02:44:14.978Z,1006.6
2018-03-26T02:44:41.121Z,1006.65
2018-03-26T02:45:07.281Z,1006.59
2018-03-26T02:45:33.420Z,1006.64
2018-03-26T02:45:59.562Z,1006.61
2018-03-26T02:46:25.699Z,1006.63
2018-03-26T02:46:51.859Z,1006.61
2018-03-26T02:47:17.996Z,1006.62
2018-03-26T02:47:44.129Z,1006.65
2018-03-26T02:48:10.261Z,1006.68
2018-03-26T02:48:36.425Z,1006.68
2018-03-26T02:49:02.572Z,1006.63
2018-03-26T02:49:28.709Z,1006.69
2018-03-26T02:49:54.848Z,1006.7
2018-03-26T02:50:20.977Z,1006.67
2018-03-26T02:50:47.124Z,1006.69
2018-03-26T02:51:13.254Z,1006.66
2018-03-26T02:51:39.416Z,1006.7
2018-03-26T02:52:05.549Z,1006.71
2018-03-26T02:52:31.687Z,1006.7
2018-03-26T02:52:57.826Z,1006.69
2018-03-26T02:53:23.978Z,1006.7
2018-03-26T02:53:50.135Z,1006.68
2018-03-26T02:54:16.267Z,1006.7
2018-03-26T02:54:42.430Z,1006.69
2018-03-26T02:55:08.564Z,1006.69
2018-03-26T02:55:34.701Z,1006.67
2018-03-26T02:56:00.837Z,1006.74
2018-03-26T02:56:26.996Z,1006.73
2018-03-26T02:56:53.160Z,1006.71
2018-03-26T02:57:19.287Z,1006.72
2018-03-26T02:57:45.457Z,1006.7
2018-03-26T02:58:11.596Z,1006.67
2018-03-26T02:58:37.733Z,1006.7
2018-03-26T02:59:03.869Z,1006.7
2018-03-26T02:59:30.011Z,1006.69
2018-03-26T02:59:56.149Z,1006.68
2018-03-26T03:00:22.305Z,1006.69
2018-03-26T03:00:48.475Z,1006.69
2018-03-26T03:01:14.635Z,1006.68
2018-03-26T03:01:40.771Z,1006.72
2018-03-26T03:02:06.929Z,1006.73
2018-03-26T03:02:33.099Z,1006.69
2018-03-26T03:02:59.237Z,1006.69
2018-03-26T03:03:25.395Z,1006.71
2018-03-26T03:03:51.532Z,1006.69
2018-03-26T03:04:17.662Z,1006.72
2018-03-26T03:04:43.797Z,1006.69
2018-03-26T03:05:09.933Z,1006.71
2018-03-26T03:05:36.093Z,1006.7
2018-03-26T03:06:02.237Z,1006.67
2018-03-26T03:06:28.371Z,1006.71
2018-03-26T03:06:54.504Z,1006.71
2018-03-26T03:07:20.648Z,1006.72
2018-03-26T03:07:46.780Z,1006.72
2018-03-26T03:08:12.920Z,1006.75
2018-03-26T03:08:39.052Z,1006.74
2018-03-26T03:09:05.197Z,1006.75
2018-03-26T03:09:31.322Z,1006.74
2018-03-26T03:09:57.464Z,1006.75
2018-03-26T03:10:23.602Z,1006.74
2018-03-26T03:10:49.734Z,1006.74
2018-03-26T03:11:15.872Z,1006.76
2018-03-26T03:11:42.010Z,1006.73
2018-03-26T03:12:08.144Z,1006.76
2018-03-26T03:12:34.274Z,1006.79
2018-03-26T03:13:00.413Z,1006.76
2018-03-26T03:13:26.552Z,1006.71
2018-03-26T03:13:52.716Z,1006.74
2018-03-26T03:14:18.851Z,1006.75
2018-03-26T03:14:45.012Z,1006.73
2018-03-26T03:15:11.150Z,1006.71
2018-03-26T03:15:37.284Z,1006.74
2018-03-26T03:16:03.424Z,1006.72
2018-03-26T03:16:29.552Z,1006.74
2018-03-26T03:16:55.691Z,1006.74
2018-03-26T03:17:21.825Z,1006.74
2018-03-26T03:17:47.990Z,1006.77
2018-03-26T03:18:14.125Z,1006.76
2018-03-26T03:18:40.260Z,1006.78
2018-03-26T03:19:06.394Z,1006.81
2018-03-26T03:19:32.533Z,1006.77
2018-03-26T03:19:58.668Z,1006.77
2018-03-26T03:20:24.808Z,1006.77
2018-03-26T03:20:50.944Z,1006.8
2018-03-26T03:21:17.086Z,1006.75
2018-03-26T03:21:43.242Z,1006.78
2018-03-26T03:22:09.375Z,1006.79
2018-03-26T03:22:35.610Z,1006.78
2018-03-26T03:23:01.699Z,1006.79
2018-03-26T03:23:27.847Z,1006.78
2018-03-26T03:23:54.005Z,1006.72
2018-03-26T03:24:20.141Z,1006.76
2018-03-26T03:24:46.280Z,1006.72
2018-03-26T03:25:12.416Z,1006.75
2018-03-26T03:25:38.546Z,1006.75
2018-03-26T03:26:04.688Z,1006.73
2018-03-26T03:26:30.819Z,1006.72
2018-03-26T03:26:56.959Z,1006.7
2018-03-26T03:27:23.094Z,1006.72
2018-03-26T03:27:49.232Z,1006.72
2018-03-26T03:28:15.374Z,1006.7
2018-03-26T03:28:41.508Z,1006.72
2018-03-26T03:29:07.649Z,1006.71
2018-03-26T03:29:33.786Z,1006.72
2018-03-26T03:29:59.926Z,1006.7
2018-03-26T03:30:26.062Z,1006.74
2018-03-26T03:30:52.193Z,1006.71
2018-03-26T03:31:18.336Z,1006.74
2018-03-26T03:31:44.463Z,1006.75
2018-03-26T03:32:10.641Z,1006.74
2018-03-26T03:32:36.759Z,1006.73
2018-03-26T03:33:02.888Z,1006.73
2018-03-26T03:33:29.026Z,1006.78
2018-03-26T03:33:55.166Z,1006.75
2018-03-26T03:34:21.301Z,1006.79
2018-03-26T03:34:47.458Z,1006.79
2018-03-26T03:35:13.592Z,1006.8
2018-03-26T03:35:39.731Z,1006.76
2018-03-26T03:36:05.897Z,1006.76
2018-03-26T03:36:32.035Z,1006.79
2018-03-26T03:36:58.173Z,1006.79
2018-03-26T03:37:24.310Z,1006.78
2018-03-26T03:37:50.447Z,1006.78
2018-03-26T03:38:16.582Z,1006.82
2018-03-26T03:38:42.721Z,1006.8
2018-03-26T03:39:08.857Z,1006.78
2018-03-26T03:39:34.997Z,1006.81
2018-03-26T03:40:01.133Z,1006.81
2018-03-26T03:40:27.266Z,1006.77
2018-03-26T03:40:53.402Z,1006.79
2018-03-26T03:41:19.533Z,1006.81
2018-03-26T03:41:45.674Z,1006.81
2018-03-26T03:42:11.815Z,1006.78
2018-03-26T03:42:37.949Z,1006.8
2018-03-26T03:43:04.088Z,1006.78
2018-03-26T03:43:30.227Z,1006.81
2018-03-26T03:43:56.365Z,1006.8
2018-03-26T03:44:22.497Z,1006.78
2018-03-26T03:44:48.636Z,1006.82
2018-03-26T03:45:14.797Z,1006.81
2018-03-26T03:45:40.961Z,1006.81
2018-03-26T03:46:07.098Z,1006.8
2018-03-26T03:46:33.227Z,1006.82
2018-03-26T03:46:59.365Z,1006.85
2018-03-26T03:47:25.497Z,1006.84
2018-03-26T03:47:51.637Z,1006.78
2018-03-26T03:48:17.779Z,1006.83
2018-03-26T03:48:43.909Z,1006.83
2018-03-26T03:49:10.043Z,1006.84
2018-03-26T03:49:36.212Z,1006.85
2018-03-26T03:50:02.349Z,1006.83
2018-03-26T03:50:28.486Z,1006.86
2018-03-26T03:50:54.647Z,1006.83
2018-03-26T03:51:20.756Z,1006.86
2018-03-26T03:51:46.895Z,1006.86
2018-03-26T03:52:13.057Z,1006.82
2018-03-26T03:52:39.249Z,1006.84
2018-03-26T03:53:05.385Z,1006.8
2018-03-26T03:53:31.526Z,1006.8
2018-03-26T03:53:57.658Z,1006.84
2018-03-26T03:54:23.798Z,1006.84
2018-03-26T03:54:49.934Z,1006.86
2018-03-26T03:55:16.069Z,1006.85
2018-03-26T03:55:42.206Z,1006.86
2018-03-26T03:56:08.367Z,1006.85
2018-03-26T03:56:34.508Z,1006.87
2018-03-26T03:57:00.636Z,1006.87
2018-03-26T03:57:26.775Z,1006.88
2018-03-26T03:57:52.926Z,1006.9
2018-03-26T03:58:19.061Z,1006.85
2018-03-26T03:58:45.217Z,1006.86
2018-03-26T03:59:11.361Z,1006.83
2018-03-26T03:59:37.492Z,1006.83
2018-03-26T04:00:03.659Z,1006.81
2018-03-26T04:00:29.764Z,1006.85
2018-03-26T04:00:55.928Z,1006.81
2018-03-26T04:01:22.063Z,1006.83
2018-03-26T04:01:48.202Z,1006.82
2018-03-26T04:02:14.349Z,1006.84
2018-03-26T04:02:40.478Z,1006.85
2018-03-26T04:03:06.624Z,1006.86
2018-03-26T04:03:32.751Z,1006.82
2018-03-26T04:03:58.894Z,1006.84
2018-03-26T04:04:25.037Z,1006.83
2018-03-26T04:04:51.196Z,1006.83
2018-03-26T04:05:17.336Z,1006.81
2018-03-26T04:05:43.475Z,1006.86
2018-03-26T04:06:09.615Z,1006.82
2018-03-26T04:06:35.773Z,1006.81
2018-03-26T04:07:01.905Z,1006.82
2018-03-26T04:07:28.040Z,1006.83
2018-03-26T04:07:54.176Z,1006.81
2018-03-26T04:08:20.310Z,1006.86
2018-03-26T04:08:46.477Z,1006.84
2018-03-26T04:09:12.652Z,1006.82
2018-03-26T04:09:38.790Z,1006.89
2018-03-26T04:10:04.952Z,1006.86
2018-03-26T04:10:31.093Z,1006.87
2018-03-26T04:10:57.229Z,1006.86
2018-03-26T04:11:23.370Z,1006.88
2018-03-26T04:11:49.503Z,1006.86
2018-03-26T04:12:15.643Z,1006.87
2018-03-26T04:12:41.782Z,1006.85
2018-03-26T04:13:07.939Z,1006.87
2018-03-26T04:13:34.079Z,1006.88
2018-03-26T04:14:00.219Z,1006.9
2018-03-26T04:14:26.381Z,1006.88
2018-03-26T04:14:52.538Z,1006.9
2018-03-26T04:15:18.706Z,1006.92
2018-03-26T04:15:44.839Z,1006.88
2018-03-26T04:16:10.983Z,1006.92
2018-03-26T04:16:37.112Z,1006.95
2018-03-26T04:17:03.250Z,1006.91
2018-03-26T04:17:29.390Z,1006.92
2018-03-26T04:17:55.594Z,1006.94
2018-03-26T04:18:21.665Z,1006.96
2018-03-26T04:18:47.802Z,1006.93
2018-03-26T04:19:13.940Z,1006.96
2018-03-26T04:19:40.073Z,1006.97
2018-03-26T04:20:06.215Z,1006.95
2018-03-26T04:20:32.374Z,1006.95
2018-03-26T04:20:58.505Z,1006.94
2018-03-26T04:21:24.645Z,1006.98
2018-03-26T04:21:50.777Z,1006.94
2018-03-26T04:22:16.928Z,1006.95
2018-03-26T04:22:43.071Z,1006.91
2018-03-26T04:23:09.210Z,1006.91
2018-03-26T04:23:35.352Z,1006.92
2018-03-26T04:24:01.507Z,1006.97
2018-03-26T04:24:27.627Z,1006.92
2018-03-26T04:24:53.761Z,1006.97
2018-03-26T04:25:19.895Z,1006.96
2018-03-26T04:25:46.075Z,1006.97
2018-03-26T04:26:12.177Z,1006.98
2018-03-26T04:26:38.315Z,1007.05
2018-03-26T04:27:04.447Z,1006.98
2018-03-26T04:27:30.585Z,1006.99
2018-03-26T04:27:56.721Z,1007
2018-03-26T04:28:22.860Z,1007.02
2018-03-26T04:28:48.993Z,1007.03
2018-03-26T04:29:15.136Z,1006.99
2018-03-26T04:29:41.269Z,1006.98
2018-03-26T04:30:07.431Z,1007.03
2018-03-26T04:30:33.547Z,1007.07
2018-03-26T04:30:59.683Z,1007.09
2018-03-26T04:31:25.824Z,1007.11
2018-03-26T04:31:51.956Z,1007.02
2018-03-26T04:32:18.093Z,1007.08
2018-03-26T04:32:44.234Z,1007.08
2018-03-26T04:33:10.376Z,1007.11
2018-03-26T04:33:36.512Z,1007.12
2018-03-26T04:34:02.648Z,1007.08
2018-03-26T04:34:28.781Z,1007.08
2018-03-26T04:34:54.920Z,1007.09
2018-03-26T04:35:21.110Z,1007.14
2018-03-26T04:35:47.192Z,1007.08
2018-03-26T04:36:13.328Z,1007.1
2018-03-26T04:36:39.483Z,1007.11
2018-03-26T04:37:05.622Z,1007.09
2018-03-26T04:37:31.758Z,1007.06
2018-03-26T04:37:57.915Z,1007.09
2018-03-26T04:38:24.059Z,1007.09
2018-03-26T04:38:50.193Z,1007.1
2018-03-26T04:39:16.326Z,1007.07
2018-03-26T04:39:42.468Z,1007.13
2018-03-26T04:40:08.604Z,1007.02
2018-03-26T04:40:34.766Z,1007.06
2018-03-26T04:41:00.899Z,1007.12
2018-03-26T04:41:27.060Z,1007.1
2018-03-26T04:41:53.225Z,1007.08
2018-03-26T04:42:19.360Z,1007.12
2018-03-26T04:42:45.502Z,1007.15
2018-03-26T04:43:11.665Z,1007.14
2018-03-26T04:43:37.801Z,1007.18
2018-03-26T04:44:03.936Z,1007.15
2018-03-26T04:44:30.073Z,1007.14
2018-03-26T04:44:56.209Z,1007.17
2018-03-26T04:45:22.367Z,1007.14
2018-03-26T04:45:48.510Z,1007.15
2018-03-26T04:46:14.646Z,1007.15
2018-03-26T04:46:40.776Z,1007.19
2018-03-26T04:47:06.940Z,1007.16
2018-03-26T04:47:33.076Z,1007.14
2018-03-26T04:47:59.213Z,1007.14
2018-03-26T04:48:25.354Z,1007.13
2018-03-26T04:48:51.488Z,1007.12
2018-03-26T04:49:17.628Z,1007.11
2018-03-26T04:49:43.763Z,1007.05
2018-03-26T04:50:09.895Z,1007.08
2018-03-26T04:50:36.033Z,1007.13
2018-03-26T04:51:02.166Z,1007.12
2018-03-26T04:51:28.307Z,1007.09
2018-03-26T04:51:54.447Z,1007.11
2018-03-26T04:52:20.579Z,1007.13
2018-03-26T04:52:46.716Z,1007.16
2018-03-26T04:53:12.856Z,1007.15
2018-03-26T04:53:38.991Z,1007.14
2018-03-26T04:54:05.134Z,1007.15
2018-03-26T04:54:31.271Z,1007.2
2018-03-26T04:54:57.410Z,1007.16
2018-03-26T04:55:23.542Z,1007.16
2018-03-26T04:55:49.685Z,1007.15
2018-03-26T04:56:15.827Z,1007.14
2018-03-26T04:56:41.962Z,1007.17
2018-03-26T04:57:08.107Z,1007.14
2018-03-26T04:57:34.242Z,1007.16
2018-03-26T04:58:00.376Z,1007.19
2018-03-26T04:58:26.515Z,1007.16
2018-03-26T04:58:52.657Z,1007.16
2018-03-26T04:59:18.814Z,1007.21
2018-03-26T04:59:44.950Z,1007.22
2018-03-26T05:00:11.091Z,1007.17
2018-03-26T05:00:37.225Z,1007.2
2018-03-26T05:01:03.359Z,1007.21
2018-03-26T05:01:29.493Z,1007.23
2018-03-26T05:01:55.631Z,1007.22
2018-03-26T05:02:21.763Z,1007.22
2018-03-26T05:02:47.901Z,1007.23
2018-03-26T05:03:14.039Z,1007.24
2018-03-26T05:03:40.202Z,1007.19
2018-03-26T05:04:06.360Z,1007.22
2018-03-26T05:04:32.500Z,1007.22
2018-03-26T05:04:58.637Z,1007.24
2018-03-26T05:05:24.806Z,1007.24
2018-03-26T05:05:50.946Z,1007.26
2018-03-26T05:06:17.081Z,1007.23
2018-03-26T05:06:43.226Z,1007.26
2018-03-26T05:07:09.386Z,1007.24
2018-03-26T05:07:35.493Z,1007.26
2018-03-26T05:08:01.632Z,1007.26
2018-03-26T05:08:27.788Z,1007.26
2018-03-26T05:08:53.921Z,1007.28
2018-03-26T05:09:20.058Z,1007.28
2018-03-26T05:09:46.196Z,1007.28
2018-03-26T05:10:12.344Z,1007.29
2018-03-26T05:10:38.508Z,1007.33
2018-03-26T05:11:04.669Z,1007.3
2018-03-26T05:11:30.812Z,1007.3
2018-03-26T05:11:56.944Z,1007.29
2018-03-26T05:12:23.083Z,1007.28
2018-03-26T05:12:49.246Z,1007.3
2018-03-26T05:13:15.383Z,1007.32
2018-03-26T05:13:41.522Z,1007.32
2018-03-26T05:14:07.656Z,1007.27
2018-03-26T05:14:33.794Z,1007.29
2018-03-26T05:14:59.929Z,1007.32
2018-03-26T05:15:26.068Z,1007.32
2018-03-26T05:15:52.209Z,1007.33
2018-03-26T05:16:18.345Z,1007.35
2018-03-26T05:16:44.491Z,1007.35
2018-03-26T05:17:10.622Z,1007.35
2018-03-26T05:17:36.762Z,1007.32